Terminal Aerodrome Forecast
Issued by NWS Chicago, IL

Home | Current Version | Previous Version | Text Only | Print | Product List | Glossary Off
Versions: 1 2 3 4 5 6 7 8 9 10 11 12 13 14 15 16 17 18 19 20 21

312
FTUS43 KLOT 270900 AAA
TAFRFD
TAF AMD
KRFD 270900Z 2709/2806 25010KT P6SM SKC
     FM271400 27016G25KT P6SM FEW050
     FM272000 28014G23KT P6SM BKN040
     FM280000 28010KT P6SM VCSH OVC040
     FM280300 29008KT 6SM -SHRA BKN015=

USA.gov is the U.S. government's official web portal to all federal, state and local government web resources and services.